createdAt,value
2019-02-24T00:04:46.124Z,75.30
2019-02-24T00:14:51.690Z,71.60
2019-02-24T00:24:57.252Z,72.00
2019-02-24T00:35:02.755Z,71.70
2019-02-24T00:45:09.280Z,73.40
2019-02-24T00:55:14.880Z,75.00
2019-02-24T01:05:24.174Z,78.10
2019-02-24T01:15:29.671Z,77.50
2019-02-24T01:25:35.174Z,75.90
2019-02-24T01:35:40.674Z,78.70
2019-02-24T01:45:46.342Z,79.30
2019-02-24T01:55:51.876Z,75.50
2019-02-24T02:05:57.438Z,77.60
2019-02-24T02:16:02.928Z,70.60
2019-02-24T02:26:08.551Z,74.60
2019-02-24T02:36:14.040Z,77.40
2019-02-24T02:46:19.659Z,73.10
2019-02-24T02:56:25.172Z,74.70
2019-02-24T03:06:32.240Z,73.30
2019-02-24T03:16:37.733Z,73.00
2019-02-24T03:26:43.249Z,74.30
2019-02-24T03:36:48.695Z,75.90
2019-02-24T03:47:14.955Z,75.30
2019-02-24T03:57:20.551Z,77.10
2019-02-24T04:07:26.134Z,78.60
2019-02-24T04:17:31.652Z,75.50
2019-02-24T04:27:45.545Z,78.30
2019-02-24T04:37:51.034Z,78.40
2019-02-24T04:47:56.605Z,79.70
2019-02-24T04:58:02.143Z,80.20
2019-02-24T05:08:07.681Z,79.80
2019-02-24T05:18:13.217Z,78.40
2019-02-24T05:28:18.724Z,75.80
2019-02-24T05:38:24.203Z,78.50
2019-02-24T05:48:29.712Z,78.70
2019-02-24T05:58:35.281Z,75.50
2019-02-24T06:08:40.880Z,74.30
2019-02-24T06:18:46.359Z,72.60
2019-02-24T06:28:51.895Z,76.60
2019-02-24T06:38:57.391Z,74.00
2019-02-24T06:49:15.734Z,75.00
2019-02-24T06:59:21.495Z,74.30
2019-02-24T07:09:26.995Z,75.10
2019-02-24T07:19:32.476Z,77.70
2019-02-24T07:29:37.985Z,77.30
2019-02-24T07:39:44.484Z,74.80
2019-02-24T07:49:50.092Z,75.70
2019-02-24T07:59:55.720Z,73.60
2019-02-24T08:10:01.339Z,73.10
2019-02-24T08:20:09.443Z,72.60
2019-02-24T08:30:14.991Z,71.40
2019-02-24T08:40:20.705Z,70.30
2019-02-24T08:50:26.175Z,67.70
2019-02-24T09:00:31.752Z,68.20
2019-02-24T09:10:37.283Z,69.50
2019-02-24T09:20:43.122Z,68.40
2019-02-24T09:30:48.606Z,67.10
2019-02-24T09:40:54.110Z,64.60
2019-02-24T09:50:59.611Z,61.20
2019-02-24T10:01:10.739Z,63.20
2019-02-24T10:11:13.274Z,61.50
2019-02-24T10:21:19.170Z,61.80
2019-02-24T10:31:24.734Z,57.60
2019-02-24T10:41:30.272Z,57.50
2019-02-24T10:51:35.931Z,57.10
2019-02-24T11:01:41.432Z,55.10
2019-02-24T11:11:47.031Z,56.70
2019-02-24T11:21:52.632Z,54.60
2019-02-24T11:31:58.254Z,54.20
2019-02-24T11:42:04.071Z,53.30
2019-02-24T11:52:09.648Z,53.40
2019-02-24T12:02:16.473Z,52.80
2019-02-24T12:12:22.246Z,55.10
2019-02-24T12:22:27.735Z,51.90
2019-02-24T12:32:34.902Z,51.80
2019-02-24T12:42:40.684Z,50.30
2019-02-24T12:52:46.473Z,51.30
2019-02-24T13:02:52.601Z,51.80
2019-02-24T13:12:58.354Z,49.90
2019-02-24T13:23:05.652Z,50.70
2019-02-24T13:33:11.407Z,50.40
2019-02-24T13:43:17.872Z,49.30
2019-02-24T13:53:24.994Z,46.80
2019-02-24T14:03:30.781Z,47.40
2019-02-24T14:13:37.017Z,44.60
2019-02-24T14:23:42.870Z,43.10
2019-02-24T14:33:48.672Z,41.70
2019-02-24T14:43:54.671Z,42.10
2019-02-24T14:54:00.472Z,43.30
2019-02-24T15:04:06.575Z,40.30
2019-02-24T15:14:12.480Z,39.00
2019-02-24T15:24:18.376Z,43.20
2019-02-24T15:34:26.234Z,42.10
2019-02-24T15:44:32.133Z,44.10
2019-02-24T15:54:37.922Z,47.70
2019-02-24T16:04:43.754Z,47.90
2019-02-24T16:14:49.781Z,49.00
2019-02-24T16:24:55.700Z,46.10
2019-02-24T16:35:01.637Z,46.60
2019-02-24T16:45:12.235Z,49.00
2019-02-24T16:55:18.755Z,48.80
2019-02-24T17:05:24.771Z,49.20
2019-02-24T17:15:32.311Z,51.40
2019-02-24T17:25:38.121Z,57.50
2019-02-24T17:35:44.030Z,59.00
2019-02-24T17:45:50.193Z,59.00
2019-02-24T17:55:56.221Z,57.80
2019-02-24T18:06:02.255Z,57.40
2019-02-24T18:16:08.318Z,58.00
2019-02-24T18:26:15.712Z,56.70
2019-02-24T18:36:25.368Z,56.50
2019-02-24T18:46:32.376Z,57.60
2019-02-24T18:56:38.194Z,58.30
2019-02-24T19:06:44.161Z,57.80
2019-02-24T19:16:51.725Z,59.20
2019-02-24T19:26:57.837Z,57.70
2019-02-24T19:37:05.380Z,58.30
2019-02-24T19:47:11.445Z,57.10
2019-02-24T19:57:20.193Z,57.30
2019-02-24T20:07:27.680Z,57.20
2019-02-24T20:17:33.786Z,56.10
2019-02-24T20:27:39.881Z,55.60
2019-02-24T20:37:45.930Z,55.30
2019-02-24T20:47:52.039Z,56.40
2019-02-24T20:57:58.118Z,57.10
2019-02-24T21:08:03.942Z,57.30
2019-02-24T21:18:09.872Z,57.90
2019-02-24T21:28:15.757Z,56.50
2019-02-24T21:38:21.634Z,56.60
2019-02-24T21:59:14.919Z,57.80
2019-02-24T22:09:20.528Z,57.20
2019-02-24T22:19:26.013Z,59.40
2019-02-24T22:29:31.494Z,59.70
2019-02-24T22:39:36.979Z,57.50
2019-02-24T22:49:42.479Z,59.40
2019-02-24T22:59:47.941Z,59.50
2019-02-24T23:09:53.695Z,62.60
2019-02-24T23:19:59.208Z,61.20
2019-02-24T23:30:07.283Z,61.00
2019-02-24T23:40:12.961Z,61.10
2019-02-24T23:50:18.521Z,59.50
